sensor_id;sensor_type;location;lat;lon;timestamp;pressure;altitude;pressure_sealevel;temperature;humidity
61908;BME280;47864;52.526;19.672;2023-11-22T00:00:49;148982.78;;;-0.17;82.67
61908;BME280;47864;52.526;19.672;2023-11-22T00:02:50;148965.19;;;-0.24;82.19
61908;BME280;47864;52.526;19.672;2023-11-22T00:04:52;148979.00;;;-0.18;80.70
61908;BME280;47864;52.526;19.672;2023-11-22T00:06:54;148991.50;;;-0.13;81.56
61908;BME280;47864;52.526;19.672;2023-11-22T00:08:55;149000.31;;;-0.10;82.25
61908;BME280;47864;52.526;19.672;2023-11-22T00:10:56;149001.56;;;-0.09;82.81
61908;BME280;47864;52.526;19.672;2023-11-22T00:12:58;148995.28;;;-0.12;84.65
61908;BME280;47864;52.526;19.672;2023-11-22T00:15:00;149021.63;;;-0.01;84.02
61908;BME280;47864;52.526;19.672;2023-11-22T00:17:01;149027.84;;;0.02;84.58
61908;BME280;47864;52.526;19.672;2023-11-22T00:19:03;148965.19;;;-0.24;83.21
61908;BME280;47864;52.526;19.672;2023-11-22T00:21:05;148986.50;;;-0.15;83.74
61908;BME280;47864;52.526;19.672;2023-11-22T00:23:07;148943.88;;;-0.32;83.31
61908;BME280;47864;52.526;19.672;2023-11-22T00:25:08;148952.69;;;-0.29;82.69
61908;BME280;47864;52.526;19.672;2023-11-22T00:27:10;148953.94;;;-0.28;81.72
61908;BME280;47864;52.526;19.672;2023-11-22T00:29:12;148933.88;;;-0.36;83.31
61908;BME280;47864;52.526;19.672;2023-11-22T00:31:13;148930.13;;;-0.38;82.17
61908;BME280;47864;52.526;19.672;2023-11-22T00:33:15;148898.81;;;-0.51;82.79
61908;BME280;47864;52.526;19.672;2023-11-22T00:35:17;148869.97;;;-0.62;83.57
61908;BME280;47864;52.526;19.672;2023-11-22T00:37:18;148918.84;;;-0.43;81.96
61908;BME280;47864;52.526;19.672;2023-11-22T00:39:20;148932.63;;;-0.37;82.07
61908;BME280;47864;52.526;19.672;2023-11-22T00:41:22;148913.84;;;-0.45;82.53
61908;BME280;47864;52.526;19.672;2023-11-22T00:43:23;148857.47;;;-0.67;83.03
61908;BME280;47864;52.526;19.672;2023-11-22T00:45:25;148886.25;;;-0.56;82.79
61908;BME280;47864;52.526;19.672;2023-11-22T00:47:26;148921.38;;;-0.42;83.74
61908;BME280;47864;52.526;19.672;2023-11-22T00:49:28;148935.13;;;-0.36;82.73
61908;BME280;47864;52.526;19.672;2023-11-22T00:51:30;148881.28;;;-0.58;84.11
61908;BME280;47864;52.526;19.672;2023-11-22T00:53:32;148918.84;;;-0.43;82.35
61908;BME280;47864;52.526;19.672;2023-11-22T00:55:34;148921.38;;;-0.42;82.51
61908;BME280;47864;52.526;19.672;2023-11-22T00:57:35;148816.13;;;-0.84;80.72
61908;BME280;47864;52.526;19.672;2023-11-22T00:59:37;148782.28;;;-0.98;80.43
61908;BME280;47864;52.526;19.672;2023-11-22T01:01:38;148793.59;;;-0.93;81.07
61908;BME280;47864;52.526;19.672;2023-11-22T01:03:40;148766.03;;;-1.04;82.18
61908;BME280;47864;52.526;19.672;2023-11-22T01:05:42;148753.50;;;-1.09;80.87
61908;BME280;47864;52.526;19.672;2023-11-22T01:07:44;148788.56;;;-0.95;80.19
61908;BME280;47864;52.526;19.672;2023-11-22T01:09:45;148817.38;;;-0.84;80.79
61908;BME280;47864;52.526;19.672;2023-11-22T01:11:47;148781.03;;;-0.98;80.64
61908;BME280;47864;52.526;19.672;2023-11-22T01:13:49;148723.44;;;-1.22;80.09
61908;BME280;47864;52.526;19.672;2023-11-22T01:15:51;148683.38;;;-1.38;80.81
61908;BME280;47864;52.526;19.672;2023-11-22T01:17:53;148718.47;;;-1.24;81.42
61908;BME280;47864;52.526;19.672;2023-11-22T01:19:54;148652.09;;;-1.50;81.96
61908;BME280;47864;52.526;19.672;2023-11-22T01:21:56;148644.59;;;-1.54;81.68
61908;BME280;47864;52.526;19.672;2023-11-22T01:23:57;148662.09;;;-1.46;81.26
61908;BME280;47864;52.526;19.672;2023-11-22T01:25:59;148639.56;;;-1.56;80.86
61908;BME280;47864;52.526;19.672;2023-11-22T01:28:01;148703.41;;;-1.30;80.53
61908;BME280;47864;52.526;19.672;2023-11-22T01:30:03;148710.94;;;-1.27;80.60
61908;BME280;47864;52.526;19.672;2023-11-22T01:32:05;148725.94;;;-1.21;81.33
61908;BME280;47864;52.526;19.672;2023-11-22T01:34:07;148703.41;;;-1.30;80.82
61908;BME280;47864;52.526;19.672;2023-11-22T01:36:11;148698.41;;;-1.32;81.17
61908;BME280;47864;52.526;19.672;2023-11-22T01:38:12;148688.41;;;-1.36;82.05
61908;BME280;47864;52.526;19.672;2023-11-22T01:40:14;148705.91;;;-1.29;82.42
61908;BME280;47864;52.526;19.672;2023-11-22T01:42:16;148650.84;;;-1.51;81.95
61908;BME280;47864;52.526;19.672;2023-11-22T01:44:17;148644.59;;;-1.54;83.79
61908;BME280;47864;52.526;19.672;2023-11-22T01:46:23;148624.56;;;-1.62;83.82
61908;BME280;47864;52.526;19.672;2023-11-22T01:48:26;148598.25;;;-1.72;83.85
61908;BME280;47864;52.526;19.672;2023-11-22T01:50:27;148629.56;;;-1.60;83.66
61908;BME280;47864;52.526;19.672;2023-11-22T01:52:29;148602.03;;;-1.71;83.49
61908;BME280;47864;52.526;19.672;2023-11-22T01:54:32;148625.81;;;-1.61;84.11
61908;BME280;47864;52.526;19.672;2023-11-22T01:56:36;148635.84;;;-1.57;84.81
61908;BME280;47864;52.526;19.672;2023-11-22T01:58:38;148660.84;;;-1.47;83.96
61908;BME280;47864;52.526;19.672;2023-11-22T02:00:49;148602.03;;;-1.71;85.56
61908;BME280;47864;52.526;19.672;2023-11-22T02:02:51;148642.06;;;-1.55;85.57
61908;BME280;47864;52.526;19.672;2023-11-22T02:04:53;148612.06;;;-1.67;86.01
61908;BME280;47864;52.526;19.672;2023-11-22T02:06:55;148579.50;;;-1.80;87.37
61908;BME280;47864;52.526;19.672;2023-11-22T02:08:56;148582.00;;;-1.79;85.97
61908;BME280;47864;52.526;19.672;2023-11-22T02:10:59;148622.03;;;-1.63;87.66
61908;BME280;47864;52.526;19.672;2023-11-22T02:13:04;148629.56;;;-1.60;86.04
61908;BME280;47864;52.526;19.672;2023-11-22T02:15:07;148617.03;;;-1.65;85.38
61908;BME280;47864;52.526;19.672;2023-11-22T02:17:08;148610.81;;;-1.67;84.87
61908;BME280;47864;52.526;19.672;2023-11-22T02:19:18;148617.03;;;-1.65;84.46
61908;BME280;47864;52.526;19.672;2023-11-22T02:21:20;148574.53;;;-1.82;85.39
61908;BME280;47864;52.526;19.672;2023-11-22T02:23:22;148558.22;;;-1.88;85.45
61908;BME280;47864;52.526;19.672;2023-11-22T02:25:23;148609.53;;;-1.68;86.22
61908;BME280;47864;52.526;19.672;2023-11-22T02:27:25;148567.00;;;-1.85;86.15
61908;BME280;47864;52.526;19.672;2023-11-22T02:29:26;148589.53;;;-1.76;85.50
61908;BME280;47864;52.526;19.672;2023-11-22T02:31:28;148587.00;;;-1.77;86.13
61908;BME280;47864;52.526;19.672;2023-11-22T02:33:30;148592.03;;;-1.75;85.47
61908;BME280;47864;52.526;19.672;2023-11-22T02:35:32;148595.78;;;-1.73;86.30
61908;BME280;47864;52.526;19.672;2023-11-22T02:37:34;148625.81;;;-1.61;86.35
61908;BME280;47864;52.526;19.672;2023-11-22T02:40:06;148567.00;;;-1.85;86.20
61908;BME280;47864;52.526;19.672;2023-11-22T02:42:05;148520.69;;;-2.04;85.84
61908;BME280;47864;52.526;19.672;2023-11-22T02:44:07;148515.66;;;-2.06;86.66
61908;BME280;47864;52.526;19.672;2023-11-22T02:46:09;148539.44;;;-1.96;87.52
61908;BME280;47864;52.526;19.672;2023-11-22T02:48:10;148441.88;;;-2.36;89.28
61908;BME280;47864;52.526;19.672;2023-11-22T02:50:13;148483.16;;;-2.19;89.37
61908;BME280;47864;52.526;19.672;2023-11-22T02:52:15;148539.44;;;-1.96;91.17
61908;BME280;47864;52.526;19.672;2023-11-22T02:54:16;148558.22;;;-1.88;87.28
61908;BME280;47864;52.526;19.672;2023-11-22T02:56:18;148580.75;;;-1.79;88.04
61908;BME280;47864;52.526;19.672;2023-11-22T02:58:20;148584.50;;;-1.78;87.16
61908;BME280;47864;52.526;19.672;2023-11-22T03:00:22;148561.97;;;-1.87;87.46
61908;BME280;47864;52.526;19.672;2023-11-22T03:02:23;148476.88;;;-2.21;88.76
61908;BME280;47864;52.526;19.672;2023-11-22T03:04:25;148518.19;;;-2.05;88.94
61908;BME280;47864;52.526;19.672;2023-11-22T03:06:27;148514.47;;;-2.06;88.77
61908;BME280;47864;52.526;19.672;2023-11-22T03:08:28;148508.19;;;-2.09;88.90
61908;BME280;47864;52.526;19.672;2023-11-22T03:10:30;148430.63;;;-2.40;93.89
61908;BME280;47864;52.526;19.672;2023-11-22T03:12:31;148433.16;;;-2.39;92.95
61908;BME280;47864;52.526;19.672;2023-11-22T03:14:33;148385.59;;;-2.58;92.29
61908;BME280;47864;52.526;19.672;2023-11-22T03:16:39;148465.66;;;-2.26;93.21
61908;BME280;47864;52.526;19.672;2023-11-22T03:18:40;148466.91;;;-2.25;92.23
61908;BME280;47864;52.526;19.672;2023-11-22T03:20:42;148469.41;;;-2.24;92.18
61908;BME280;47864;52.526;19.672;2023-11-22T03:22:43;148445.63;;;-2.34;94.78
61908;BME280;47864;52.526;19.672;2023-11-22T03:24:45;148365.59;;;-2.66;98.10
61908;BME280;47864;52.526;19.672;2023-11-22T03:26:47;148424.38;;;-2.43;94.82
61908;BME280;47864;52.526;19.672;2023-11-22T03:28:48;148411.88;;;-2.48;95.04
61908;BME280;47864;52.526;19.672;2023-11-22T03:30:50;148425.63;;;-2.42;95.75
61908;BME280;47864;52.526;19.672;2023-11-22T03:32:51;148408.13;;;-2.49;97.17
61908;BME280;47864;52.526;19.672;2023-11-22T03:34:53;148381.84;;;-2.60;97.95
61908;BME280;47864;52.526;19.672;2023-11-22T03:36:55;148396.84;;;-2.54;95.51
61908;BME280;47864;52.526;19.672;2023-11-22T03:38:56;148364.34;;;-2.67;96.63
61908;BME280;47864;52.526;19.672;2023-11-22T03:40:58;148414.34;;;-2.47;96.40
61908;BME280;47864;52.526;19.672;2023-11-22T03:42:59;148381.84;;;-2.60;97.15
61908;BME280;47864;52.526;19.672;2023-11-22T03:45:01;148313.06;;;-2.88;97.94
61908;BME280;47864;52.526;19.672;2023-11-22T03:47:03;148343.09;;;-2.76;97.78
61908;BME280;47864;52.526;19.672;2023-11-22T03:49:05;148380.59;;;-2.60;97.04
61908;BME280;47864;52.526;19.672;2023-11-22T03:51:07;148385.59;;;-2.58;100.00
61908;BME280;47864;52.526;19.672;2023-11-22T03:53:08;148414.34;;;-2.47;97.31
61908;BME280;47864;52.526;19.672;2023-11-22T03:55:10;148395.59;;;-2.54;96.03
61908;BME280;47864;52.526;19.672;2023-11-22T03:57:12;148404.34;;;-2.51;98.53
61908;BME280;47864;52.526;19.672;2023-11-22T03:59:13;148375.56;;;-2.62;99.15
61908;BME280;47864;52.526;19.672;2023-11-22T04:01:15;148345.59;;;-2.75;98.54
61908;BME280;47864;52.526;19.672;2023-11-22T04:03:17;148348.09;;;-2.74;100.00
61908;BME280;47864;52.526;19.672;2023-11-22T04:05:18;148350.59;;;-2.73;99.51
61908;BME280;47864;52.526;19.672;2023-11-22T04:07:20;148349.34;;;-2.73;100.00
61908;BME280;47864;52.526;19.672;2023-11-22T04:09:22;148313.06;;;-2.88;100.00
61908;BME280;47864;52.526;19.672;2023-11-22T04:11:23;148268.09;;;-3.06;100.00
61908;BME280;47864;52.526;19.672;2023-11-22T04:13:25;148306.84;;;-2.90;100.00
61908;BME280;47864;52.526;19.672;2023-11-22T04:15:26;148348.09;;;-2.74;100.00
61908;BME280;47864;52.526;19.672;2023-11-22T04:17:28;148350.59;;;-2.73;99.73
61908;BME280;47864;52.526;19.672;2023-11-22T04:19:30;148335.56;;;-2.79;99.50
61908;BME280;47864;52.526;19.672;2023-11-22T04:21:32;148325.59;;;-2.83;100.00
61908;BME280;47864;52.526;19.672;2023-11-22T04:23:35;148353.06;;;-2.72;100.00
61908;BME280;47864;52.526;19.672;2023-11-22T04:25:37;148335.56;;;-2.79;100.00
61908;BME280;47864;52.526;19.672;2023-11-22T04:27:38;148298.06;;;-2.94;100.00
61908;BME280;47864;52.526;19.672;2023-11-22T04:29:40;148296.81;;;-2.94;100.00
61908;BME280;47864;52.526;19.672;2023-11-22T04:31:42;148283.06;;;-3.00;100.00
61908;BME280;47864;52.526;19.672;2023-11-22T04:33:43;148323.06;;;-2.84;100.00
61908;BME280;47864;52.526;19.672;2023-11-22T04:35:46;148281.81;;;-3.00;100.00
61908;BME280;47864;52.526;19.672;2023-11-22T04:37:47;148309.34;;;-2.89;100.00
61908;BME280;47864;52.526;19.672;2023-11-22T04:39:49;148280.56;;;-3.01;100.00
61908;BME280;47864;52.526;19.672;2023-11-22T04:41:50;148310.59;;;-2.89;100.00
61908;BME280;47864;52.526;19.672;2023-11-22T04:43:52;148304.31;;;-2.91;100.00
61908;BME280;47864;52.526;19.672;2023-11-22T04:45:53;148264.31;;;-3.08;100.00
61908;BME280;47864;52.526;19.672;2023-11-22T04:47:55;148301.81;;;-2.92;100.00
61908;BME280;47864;52.526;19.672;2023-11-22T04:49:57;148313.06;;;-2.88;100.00
61908;BME280;47864;52.526;19.672;2023-11-22T04:51:58;148304.31;;;-2.91;100.00
61908;BME280;47864;52.526;19.672;2023-11-22T04:54:00;148329.34;;;-2.81;100.00
61908;BME280;47864;52.526;19.672;2023-11-22T04:56:02;148299.31;;;-2.93;100.00
61908;BME280;47864;52.526;19.672;2023-11-22T04:58:03;148358.06;;;-2.70;100.00
61908;BME280;47864;52.526;19.672;2023-11-22T05:00:05;148355.56;;;-2.71;100.00
61908;BME280;47864;52.526;19.672;2023-11-22T05:02:07;148263.06;;;-3.08;100.00
61908;BME280;47864;52.526;19.672;2023-11-22T05:04:09;148318.06;;;-2.86;100.00
61908;BME280;47864;52.526;19.672;2023-11-22T05:06:11;148313.06;;;-2.88;100.00
61908;BME280;47864;52.526;19.672;2023-11-22T05:08:12;148263.06;;;-3.08;100.00
61908;BME280;47864;52.526;19.672;2023-11-22T05:10:14;148303.06;;;-2.92;100.00
61908;BME280;47864;52.526;19.672;2023-11-22T05:12:15;148310.59;;;-2.89;100.00
61908;BME280;47864;52.526;19.672;2023-11-22T05:14:17;148290.59;;;-2.97;100.00
61908;BME280;47864;52.526;19.672;2023-11-22T05:16:19;148366.84;;;-2.66;100.00
61908;BME280;47864;52.526;19.672;2023-11-22T05:18:20;148355.56;;;-2.71;100.00
61908;BME280;47864;52.526;19.672;2023-11-22T05:20:22;148314.31;;;-2.87;100.00
61908;BME280;47864;52.526;19.672;2023-11-22T05:22:24;148324.31;;;-2.83;100.00
61908;BME280;47864;52.526;19.672;2023-11-22T05:24:25;148351.84;;;-2.72;100.00
61908;BME280;47864;52.526;19.672;2023-11-22T05:26:27;148323.06;;;-2.84;100.00
61908;BME280;47864;52.526;19.672;2023-11-22T05:28:29;148296.81;;;-2.94;100.00
61908;BME280;47864;52.526;19.672;2023-11-22T05:30:30;148325.59;;;-2.83;100.00
61908;BME280;47864;52.526;19.672;2023-11-22T05:32:32;148343.09;;;-2.76;100.00
61908;BME280;47864;52.526;19.672;2023-11-22T05:34:33;148353.06;;;-2.72;100.00
61908;BME280;47864;52.526;19.672;2023-11-22T05:36:35;148364.34;;;-2.67;99.98
61908;BME280;47864;52.526;19.672;2023-11-22T05:38:37;148385.59;;;-2.58;100.00
61908;BME280;47864;52.526;19.672;2023-11-22T05:40:38;148376.81;;;-2.62;99.55
61908;BME280;47864;52.526;19.672;2023-11-22T05:42:40;148423.13;;;-2.43;98.69
61908;BME280;47864;52.526;19.672;2023-11-22T05:44:42;148359.31;;;-2.69;100.00
61908;BME280;47864;52.526;19.672;2023-11-22T05:46:43;148389.38;;;-2.57;100.00
61908;BME280;47864;52.526;19.672;2023-11-22T05:48:45;148395.59;;;-2.54;100.00
61908;BME280;47864;52.526;19.672;2023-11-22T05:50:48;148399.34;;;-2.53;99.64
61908;BME280;47864;52.526;19.672;2023-11-22T05:52:50;148395.59;;;-2.54;100.00
61908;BME280;47864;52.526;19.672;2023-11-22T05:54:51;148373.06;;;-2.63;98.36
61908;BME280;47864;52.526;19.672;2023-11-22T05:56:53;148354.31;;;-2.71;98.25
61908;BME280;47864;52.526;19.672;2023-11-22T05:58:55;148384.34;;;-2.59;98.24
61908;BME280;47864;52.526;19.672;2023-11-22T06:00:57;148316.81;;;-2.86;98.21
61908;BME280;47864;52.526;19.672;2023-11-22T06:02:58;148365.59;;;-2.66;100.00
61908;BME280;47864;52.526;19.672;2023-11-22T06:05:00;148380.59;;;-2.60;100.00
61908;BME280;47864;52.526;19.672;2023-11-22T06:07:02;148385.59;;;-2.58;100.00
61908;BME280;47864;52.526;19.672;2023-11-22T06:09:03;148376.81;;;-2.62;100.00
61908;BME280;47864;52.526;19.672;2023-11-22T06:11:05;148375.56;;;-2.62;100.00
61908;BME280;47864;52.526;19.672;2023-11-22T06:13:06;148326.84;;;-2.82;100.00
61908;BME280;47864;52.526;19.672;2023-11-22T06:15:08;148321.81;;;-2.84;100.00
61908;BME280;47864;52.526;19.672;2023-11-22T06:17:10;148333.06;;;-2.80;100.00
61908;BME280;47864;52.526;19.672;2023-11-22T06:19:12;148348.09;;;-2.74;100.00
61908;BME280;47864;52.526;19.672;2023-11-22T06:21:13;148364.34;;;-2.67;100.00
61908;BME280;47864;52.526;19.672;2023-11-22T06:23:15;148330.59;;;-2.81;100.00
61908;BME280;47864;52.526;19.672;2023-11-22T06:25:16;148379.34;;;-2.61;100.00
61908;BME280;47864;52.526;19.672;2023-11-22T06:27:18;148368.09;;;-2.65;100.00
61908;BME280;47864;52.526;19.672;2023-11-22T06:29:19;148344.34;;;-2.75;100.00
61908;BME280;47864;52.526;19.672;2023-11-22T06:31:21;148300.56;;;-2.93;100.00
61908;BME280;47864;52.526;19.672;2023-11-22T06:33:23;148290.59;;;-2.97;100.00
61908;BME280;47864;52.526;19.672;2023-11-22T06:35:24;148258.06;;;-3.10;100.00
61908;BME280;47864;52.526;19.672;2023-11-22T06:37:26;148261.81;;;-3.09;100.00
61908;BME280;47864;52.526;19.672;2023-11-22T06:39:27;148255.56;;;-3.11;100.00
61908;BME280;47864;52.526;19.672;2023-11-22T06:41:28;148205.59;;;-3.31;100.00
61908;BME280;47864;52.526;19.672;2023-11-22T06:43:30;148229.34;;;-3.22;100.00
61908;BME280;47864;52.526;19.672;2023-11-22T06:45:32;148178.06;;;-3.42;100.00
61908;BME280;47864;52.526;19.672;2023-11-22T06:47:33;148163.09;;;-3.49;100.00
61908;BME280;47864;52.526;19.672;2023-11-22T06:49:35;148175.56;;;-3.43;100.00
61908;BME280;47864;52.526;19.672;2023-11-22T06:51:37;148194.31;;;-3.36;100.00
61908;BME280;47864;52.526;19.672;2023-11-22T06:53:38;148164.34;;;-3.48;100.00
61908;BME280;47864;52.526;19.672;2023-11-22T06:55:40;148145.59;;;-3.56;100.00
61908;BME280;47864;52.526;19.672;2023-11-22T06:57:41;148029.38;;;-4.03;100.00
61908;BME280;47864;52.526;19.672;2023-11-22T06:59:43;148044.41;;;-3.97;100.00
61908;BME280;47864;52.526;19.672;2023-11-22T07:01:44;148080.63;;;-3.82;100.00
61908;BME280;47864;52.526;19.672;2023-11-22T07:03:46;148131.81;;;-3.61;100.00
61908;BME280;47864;52.526;19.672;2023-11-22T07:05:47;148228.09;;;-3.22;100.00
61908;BME280;47864;52.526;19.672;2023-11-22T07:07:49;148250.59;;;-3.13;100.00
61908;BME280;47864;52.526;19.672;2023-11-22T07:09:51;148280.56;;;-3.01;100.00
61908;BME280;47864;52.526;19.672;2023-11-22T07:11:52;148305.56;;;-2.91;100.00
61908;BME280;47864;52.526;19.672;2023-11-22T07:13:54;148358.06;;;-2.70;100.00
61908;BME280;47864;52.526;19.672;2023-11-22T07:15:55;148380.59;;;-2.60;100.00
61908;BME280;47864;52.526;19.672;2023-11-22T07:17:57;148411.88;;;-2.48;100.00
61908;BME280;47864;52.526;19.672;2023-11-22T07:19:59;148428.13;;;-2.41;100.00
61908;BME280;47864;52.526;19.672;2023-11-22T07:22:01;148473.16;;;-2.23;100.00
61908;BME280;47864;52.526;19.672;2023-11-22T07:24:02;148499.41;;;-2.12;100.00
61908;BME280;47864;52.526;19.672;2023-11-22T07:26:04;148438.13;;;-2.37;99.21
61908;BME280;47864;52.526;19.672;2023-11-22T07:28:05;148435.59;;;-2.38;97.79
61908;BME280;47864;52.526;19.672;2023-11-22T07:30:07;148455.63;;;-2.30;96.97
61908;BME280;47864;52.526;19.672;2023-11-22T07:32:10;148365.59;;;-2.66;100.00
61908;BME280;47864;52.526;19.672;2023-11-22T07:34:11;148506.94;;;-2.09;98.58
61908;BME280;47864;52.526;19.672;2023-11-22T07:36:13;148545.72;;;-1.94;95.63
61908;BME280;47864;52.526;19.672;2023-11-22T07:38:14;148569.50;;;-1.84;95.88
61908;BME280;47864;52.526;19.672;2023-11-22T07:40:16;148538.19;;;-1.97;95.56
61908;BME280;47864;52.526;19.672;2023-11-22T07:42:17;148552.00;;;-1.91;94.95
61908;BME280;47864;52.526;19.672;2023-11-22T07:44:19;148548.22;;;-1.93;93.45
61908;BME280;47864;52.526;19.672;2023-11-22T07:46:21;148519.44;;;-2.04;97.96
61908;BME280;47864;52.526;19.672;2023-11-22T07:48:22;148555.75;;;-1.89;94.27
61908;BME280;47864;52.526;19.672;2023-11-22T07:50:24;148572.00;;;-1.83;94.79
61908;BME280;47864;52.526;19.672;2023-11-22T07:52:25;148630.81;;;-1.59;94.00
61908;BME280;47864;52.526;19.672;2023-11-22T07:54:27;148632.06;;;-1.59;92.21
61908;BME280;47864;52.526;19.672;2023-11-22T07:56:28;148653.38;;;-1.50;91.24
61908;BME280;47864;52.526;19.672;2023-11-22T07:58:30;148622.03;;;-1.63;91.59
61908;BME280;47864;52.526;19.672;2023-11-22T08:00:33;148538.19;;;-1.97;97.40
61908;BME280;47864;52.526;19.672;2023-11-22T08:02:34;148644.59;;;-1.54;93.90
61908;BME280;47864;52.526;19.672;2023-11-22T08:04:38;148687.16;;;-1.36;95.56
61908;BME280;47864;52.526;19.672;2023-11-22T08:06:40;148682.13;;;-1.38;91.45
61908;BME280;47864;52.526;19.672;2023-11-22T08:08:41;148659.59;;;-1.47;88.05
61908;BME280;47864;52.526;19.672;2023-11-22T08:10:43;148675.91;;;-1.41;87.21
61908;BME280;47864;52.526;19.672;2023-11-22T08:12:46;148678.34;;;-1.40;87.43
61908;BME280;47864;52.526;19.672;2023-11-22T08:14:47;148679.63;;;-1.39;89.12
61908;BME280;47864;52.526;19.672;2023-11-22T08:16:49;148753.50;;;-1.09;87.52
61908;BME280;47864;52.526;19.672;2023-11-22T08:18:52;148678.34;;;-1.40;88.02
61908;BME280;47864;52.526;19.672;2023-11-22T08:20:54;148724.69;;;-1.21;86.16
61908;BME280;47864;52.526;19.672;2023-11-22T08:22:56;148773.56;;;-1.01;86.03
61908;BME280;47864;52.526;19.672;2023-11-22T08:24:57;148873.75;;;-0.61;85.78
61908;BME280;47864;52.526;19.672;2023-11-22T08:26:59;148943.88;;;-0.32;84.90
61908;BME280;47864;52.526;19.672;2023-11-22T08:29:00;148931.38;;;-0.38;82.17
61908;BME280;47864;52.526;19.672;2023-11-22T08:31:02;148938.91;;;-0.34;82.02
61908;BME280;47864;52.526;19.672;2023-11-22T08:33:03;148933.88;;;-0.36;84.61
61908;BME280;47864;52.526;19.672;2023-11-22T08:35:05;148888.78;;;-0.55;82.93
61908;BME280;47864;52.526;19.672;2023-11-22T08:37:07;148892.53;;;-0.53;81.37
61908;BME280;47864;52.526;19.672;2023-11-22T08:39:08;148900.06;;;-0.50;82.23
61908;BME280;47864;52.526;19.672;2023-11-22T08:41:10;148932.63;;;-0.37;82.17
61908;BME280;47864;52.526;19.672;2023-11-22T08:43:12;148848.69;;;-0.71;86.24
61908;BME280;47864;52.526;19.672;2023-11-22T08:45:13;148938.91;;;-0.34;83.01
61908;BME280;47864;52.526;19.672;2023-11-22T08:47:15;148867.47;;;-0.63;83.44
61908;BME280;47864;52.526;19.672;2023-11-22T08:49:16;149011.56;;;-0.05;80.24
61908;BME280;47864;52.526;19.672;2023-11-22T08:51:18;148980.25;;;-0.18;76.37
61908;BME280;47864;52.526;19.672;2023-11-22T08:53:20;149076.75;;;0.21;77.63
61908;BME280;47864;52.526;19.672;2023-11-22T08:55:21;148999.06;;;-0.10;79.44
61908;BME280;47864;52.526;19.672;2023-11-22T08:57:23;149085.50;;;0.25;79.59
61908;BME280;47864;52.526;19.672;2023-11-22T08:59:24;149103.09;;;0.32;76.18
61908;BME280;47864;52.526;19.672;2023-11-22T09:01:26;149115.63;;;0.37;73.84
61908;BME280;47864;52.526;19.672;2023-11-22T09:03:28;149101.84;;;0.31;73.97
61908;BME280;47864;52.526;19.672;2023-11-22T09:05:29;149049.16;;;0.10;72.68
61908;BME280;47864;52.526;19.672;2023-11-22T09:07:31;149086.75;;;0.25;71.97
61908;BME280;47864;52.526;19.672;2023-11-22T09:09:32;149136.94;;;0.46;71.54
61908;BME280;47864;52.526;19.672;2023-11-22T09:11:34;149144.47;;;0.49;73.13
61908;BME280;47864;52.526;19.672;2023-11-22T09:13:36;149146.94;;;0.50;71.77
61908;BME280;47864;52.526;19.672;2023-11-22T09:15:38;149244.81;;;0.89;71.28
61908;BME280;47864;52.526;19.672;2023-11-22T09:17:41;149194.59;;;0.69;71.62
61908;BME280;47864;52.526;19.672;2023-11-22T09:19:42;149233.50;;;0.85;72.35
61908;BME280;47864;52.526;19.672;2023-11-22T09:21:44;149310.00;;;1.15;71.33
61908;BME280;47864;52.526;19.672;2023-11-22T09:23:46;149257.31;;;0.94;70.45
61908;BME280;47864;52.526;19.672;2023-11-22T09:25:49;149253.56;;;0.93;71.55
61908;BME280;47864;52.526;19.672;2023-11-22T09:27:53;149199.63;;;0.71;69.13
61908;BME280;47864;52.526;19.672;2023-11-22T09:29:54;149228.47;;;0.83;73.17
61908;BME280;47864;52.526;19.672;2023-11-22T09:31:56;149274.88;;;1.01;71.36
61908;BME280;47864;52.526;19.672;2023-11-22T09:33:57;149232.22;;;0.84;68.14
61908;BME280;47864;52.526;19.672;2023-11-22T09:35:59;149187.13;;;0.66;66.43
61908;BME280;47864;52.526;19.672;2023-11-22T09:38:05;149207.19;;;0.74;68.81
61908;BME280;47864;52.526;19.672;2023-11-22T09:40:09;149219.69;;;0.79;67.71
61908;BME280;47864;52.526;19.672;2023-11-22T09:42:10;149183.34;;;0.64;67.46
61908;BME280;47864;52.526;19.672;2023-11-22T09:44:12;149223.47;;;0.81;66.23
61908;BME280;47864;52.526;19.672;2023-11-22T09:46:13;149195.88;;;0.69;68.08
61908;BME280;47864;52.526;19.672;2023-11-22T09:48:19;149297.47;;;1.10;67.66
61908;BME280;47864;52.526;19.672;2023-11-22T09:50:29;149336.34;;;1.26;65.51
61908;BME280;47864;52.526;19.672;2023-11-22T09:52:33;149341.38;;;1.28;68.12
61908;BME280;47864;52.526;19.672;2023-11-22T09:54:39;149343.91;;;1.29;66.54
61908;BME280;47864;52.526;19.672;2023-11-22T09:56:40;149279.91;;;1.03;66.99
61908;BME280;47864;52.526;19.672;2023-11-22T09:58:43;149305.00;;;1.13;66.62
61908;BME280;47864;52.526;19.672;2023-11-22T10:00:44;149284.94;;;1.05;65.93
61908;BME280;47864;52.526;19.672;2023-11-22T10:02:46;149289.91;;;1.07;66.79
61908;BME280;47864;52.526;19.672;2023-11-22T10:04:48;149162.03;;;0.56;66.00
61908;BME280;47864;52.526;19.672;2023-11-22T10:06:50;149202.16;;;0.72;65.99
61908;BME280;47864;52.526;19.672;2023-11-22T10:08:51;149284.94;;;1.05;66.50
61908;BME280;47864;52.526;19.672;2023-11-22T10:10:53;149318.78;;;1.19;66.27
61908;BME280;47864;52.526;19.672;2023-11-22T10:12:55;149387.81;;;1.47;65.57
61908;BME280;47864;52.526;19.672;2023-11-22T10:15:12;149394.06;;;1.49;65.54
61908;BME280;47864;52.526;19.672;2023-11-22T10:17:14;149331.31;;;1.24;65.03
61908;BME280;47864;52.526;19.672;2023-11-22T10:19:17;149356.44;;;1.34;65.70
61908;BME280;47864;52.526;19.672;2023-11-22T10:21:29;149412.88;;;1.57;67.47
61908;BME280;47864;52.526;19.672;2023-11-22T10:23:30;149445.56;;;1.70;65.89
61908;BME280;47864;52.526;19.672;2023-11-22T10:25:32;149436.75;;;1.67;66.51
61908;BME280;47864;52.526;19.672;2023-11-22T10:27:33;149438.00;;;1.67;65.98